sensor_id;sensor_type;location;lat;lon;timestamp;pressure;altitude;pressure_sealevel;temperature
67966;BMP280;54749;47.850;9.002;2022-10-16T00:01:25;96036.38;;;11.62
67966;BMP280;54749;47.850;9.002;2022-10-16T00:03:52;96034.56;;;11.64
67966;BMP280;54749;47.850;9.002;2022-10-16T00:06:20;96045.47;;;11.65
67966;BMP280;54749;47.850;9.002;2022-10-16T00:08:48;96042.81;;;11.66
67966;BMP280;54749;47.850;9.002;2022-10-16T00:13:47;96035.66;;;11.71
67966;BMP280;54749;47.850;9.002;2022-10-16T00:16:15;96034.63;;;11.73
67966;BMP280;54749;47.850;9.002;2022-10-16T00:18:42;96034.63;;;11.73
67966;BMP280;54749;47.850;9.002;2022-10-16T00:21:15;96042.09;;;11.75
67966;BMP280;54749;47.850;9.002;2022-10-16T00:23:42;96044.63;;;11.75
67966;BMP280;54749;47.850;9.002;2022-10-16T00:26:12;96042.09;;;11.75
67966;BMP280;54749;47.850;9.002;2022-10-16T00:28:39;96040.25;;;11.77
67966;BMP280;54749;47.850;9.002;2022-10-16T00:31:09;96033.59;;;11.76
67966;BMP280;54749;47.850;9.002;2022-10-16T00:33:38;96038.66;;;11.76
67966;BMP280;54749;47.850;9.002;2022-10-16T00:36:07;96036.78;;;11.78
67966;BMP280;54749;47.850;9.002;2022-10-16T00:38:34;96050.81;;;11.82
67966;BMP280;54749;47.850;9.002;2022-10-16T00:41:01;96044.81;;;11.83
67966;BMP280;54749;47.850;9.002;2022-10-16T00:43:43;96039.53;;;11.86
67966;BMP280;54749;47.850;9.002;2022-10-16T00:46:15;96047.56;;;11.90
67966;BMP280;54749;47.850;9.002;2022-10-16T00:48:46;96039.59;;;11.95
67966;BMP280;54749;47.850;9.002;2022-10-16T00:51:15;96049.38;;;11.99
67966;BMP280;54749;47.850;9.002;2022-10-16T00:53:41;96048.44;;;12.00
67966;BMP280;54749;47.850;9.002;2022-10-16T00:56:08;96050.88;;;12.02
67966;BMP280;54749;47.850;9.002;2022-10-16T00:58:35;96043.16;;;12.03
67966;BMP280;54749;47.850;9.002;2022-10-16T01:01:02;96035.56;;;12.03
67966;BMP280;54749;47.850;9.002;2022-10-16T01:03:32;96049.81;;;12.04
67966;BMP280;54749;47.850;9.002;2022-10-16T01:06:07;96037.03;;;12.06
67966;BMP280;54749;47.850;9.002;2022-10-16T01:12:13;96029.97;;;12.09
67966;BMP280;54749;47.850;9.002;2022-10-16T01:14:58;96037.59;;;12.09
67966;BMP280;54749;47.850;9.002;2022-10-16T01:17:33;96031.47;;;12.11
67966;BMP280;54749;47.850;9.002;2022-10-16T01:25:39;96062.69;;;12.12
67966;BMP280;54749;47.850;9.002;2022-10-16T01:28:10;96053.22;;;12.14
67966;BMP280;54749;47.850;9.002;2022-10-16T01:30:40;96065.63;;;12.17
67966;BMP280;54749;47.850;9.002;2022-10-16T01:33:14;96050.22;;;12.20
67966;BMP280;54749;47.850;9.002;2022-10-16T01:35:46;96057.66;;;12.21
67966;BMP280;54749;47.850;9.002;2022-10-16T01:38:38;96065.16;;;12.23
67966;BMP280;54749;47.850;9.002;2022-10-16T01:41:12;96073.69;;;12.22
67966;BMP280;54749;47.850;9.002;2022-10-16T01:44:03;96067.44;;;12.25
67966;BMP280;54749;47.850;9.002;2022-10-16T01:46:33;96059.84;;;12.25
67966;BMP280;54749;47.850;9.002;2022-10-16T01:49:01;96062.50;;;12.24
67966;BMP280;54749;47.850;9.002;2022-10-16T01:51:29;96066.06;;;12.22
67966;BMP280;54749;47.850;9.002;2022-10-16T01:53:58;96073.69;;;12.22
67966;BMP280;54749;47.850;9.002;2022-10-16T01:56:27;96066.88;;;12.22
67966;BMP280;54749;47.850;9.002;2022-10-16T01:58:59;96067.59;;;12.24
67966;BMP280;54749;47.850;9.002;2022-10-16T02:01:30;96062.25;;;12.27
67966;BMP280;54749;47.850;9.002;2022-10-16T02:04:02;96056.38;;;12.26
67966;BMP280;54749;47.850;9.002;2022-10-16T02:06:30;96064.91;;;12.25
67966;BMP280;54749;47.850;9.002;2022-10-16T02:08:57;96064.91;;;12.25
67966;BMP280;54749;47.850;9.002;2022-10-16T02:11:24;96059.84;;;12.25
67966;BMP280;54749;47.850;9.002;2022-10-16T02:13:55;96058.00;;;12.27
67966;BMP280;54749;47.850;9.002;2022-10-16T02:16:37;96063.06;;;12.27
67966;BMP280;54749;47.850;9.002;2022-10-16T02:19:05;96067.81;;;12.21
67966;BMP280;54749;47.850;9.002;2022-10-16T02:21:47;96075.56;;;12.20
67966;BMP280;54749;47.850;9.002;2022-10-16T02:24:33;96072.31;;;12.18
67966;BMP280;54749;47.850;9.002;2022-10-16T02:29:39;96062.19;;;12.18
67966;BMP280;54749;47.850;9.002;2022-10-16T02:32:09;96067.50;;;12.15
67966;BMP280;54749;47.850;9.002;2022-10-16T02:34:37;96066.25;;;12.09
67966;BMP280;54749;47.850;9.002;2022-10-16T02:37:06;96063.72;;;12.09
67966;BMP280;54749;47.850;9.002;2022-10-16T02:39:34;96059.72;;;12.07
67966;BMP280;54749;47.850;9.002;2022-10-16T02:42:01;96056.94;;;12.10
67966;BMP280;54749;47.850;9.002;2022-10-16T02:44:28;96064.53;;;12.10
67966;BMP280;54749;47.850;9.002;2022-10-16T02:46:55;96067.88;;;12.10
67966;BMP280;54749;47.850;9.002;2022-10-16T02:49:21;96066.16;;;12.11
67966;BMP280;54749;47.850;9.002;2022-10-16T02:51:48;96068.53;;;12.12
67966;BMP280;54749;47.850;9.002;2022-10-16T02:54:15;96062.69;;;12.12
67966;BMP280;54749;47.850;9.002;2022-10-16T02:56:42;96052.56;;;12.12
67966;BMP280;54749;47.850;9.002;2022-10-16T02:59:09;96061.06;;;12.11
67966;BMP280;54749;47.850;9.002;2022-10-16T03:01:35;96054.41;;;12.10
67966;BMP280;54749;47.850;9.002;2022-10-16T03:04:03;96050.50;;;12.06
67966;BMP280;54749;47.850;9.002;2022-10-16T03:06:29;96053.03;;;12.06
67966;BMP280;54749;47.850;9.002;2022-10-16T03:08:56;96056.38;;;12.07
67966;BMP280;54749;47.850;9.002;2022-10-16T03:11:23;96055.56;;;12.06
67966;BMP280;54749;47.850;9.002;2022-10-16T03:13:50;96052.13;;;12.07
67966;BMP280;54749;47.850;9.002;2022-10-16T03:16:17;96057.84;;;12.09
67966;BMP280;54749;47.850;9.002;2022-10-16T03:18:48;96062.00;;;12.10
67966;BMP280;54749;47.850;9.002;2022-10-16T03:21:15;96069.84;;;12.07
67966;BMP280;54749;47.850;9.002;2022-10-16T03:23:42;96062.34;;;12.06
67966;BMP280;54749;47.850;9.002;2022-10-16T03:26:09;96073.31;;;12.06
67966;BMP280;54749;47.850;9.002;2022-10-16T03:28:35;96072.25;;;12.08
67966;BMP280;54749;47.850;9.002;2022-10-16T03:31:02;96074.66;;;12.10
67966;BMP280;54749;47.850;9.002;2022-10-16T03:33:29;96071.22;;;12.11
67966;BMP280;54749;47.850;9.002;2022-10-16T03:35:56;96090.56;;;12.12
67966;BMP280;54749;47.850;9.002;2022-10-16T03:38:23;96087.22;;;12.11
67966;BMP280;54749;47.850;9.002;2022-10-16T03:40:49;96083.75;;;12.12
67966;BMP280;54749;47.850;9.002;2022-10-16T03:43:16;96092.41;;;12.10
67966;BMP280;54749;47.850;9.002;2022-10-16T03:45:43;96085.06;;;12.07
67966;BMP280;54749;47.850;9.002;2022-10-16T03:48:10;96083.44;;;12.06
67966;BMP280;54749;47.850;9.002;2022-10-16T03:50:36;96078.84;;;12.00
67966;BMP280;54749;47.850;9.002;2022-10-16T03:53:03;96090.13;;;11.96
67966;BMP280;54749;47.850;9.002;2022-10-16T03:55:30;96089.47;;;11.94
67966;BMP280;54749;47.850;9.002;2022-10-16T03:57:57;96090.50;;;11.92
67966;BMP280;54749;47.850;9.002;2022-10-16T04:00:24;96091.78;;;11.87
67966;BMP280;54749;47.850;9.002;2022-10-16T04:02:51;96093.63;;;11.85
67966;BMP280;54749;47.850;9.002;2022-10-16T04:05:17;96095.47;;;11.83
67966;BMP280;54749;47.850;9.002;2022-10-16T04:07:44;96097.34;;;11.81
67966;BMP280;54749;47.850;9.002;2022-10-16T04:10:11;96096.63;;;11.79
67966;BMP280;54749;47.850;9.002;2022-10-16T04:12:38;96092.50;;;11.78
67966;BMP280;54749;47.850;9.002;2022-10-16T04:15:05;96087.69;;;11.75
67966;BMP280;54749;47.850;9.002;2022-10-16T04:17:32;96101.50;;;11.71
67966;BMP280;54749;47.850;9.002;2022-10-16T04:19:59;96105.84;;;11.69
67966;BMP280;54749;47.850;9.002;2022-10-16T04:22:26;96091.63;;;11.68
67966;BMP280;54749;47.850;9.002;2022-10-16T04:24:53;96095.72;;;11.69
67966;BMP280;54749;47.850;9.002;2022-10-16T04:27:20;96098.16;;;11.71
67966;BMP280;54749;47.850;9.002;2022-10-16T04:29:47;96099.66;;;11.73
67966;BMP280;54749;47.850;9.002;2022-10-16T04:32:14;96116.34;;;11.75
67966;BMP280;54749;47.850;9.002;2022-10-16T04:34:40;96103.31;;;11.80
67966;BMP280;54749;47.850;9.002;2022-10-16T04:37:07;96100.78;;;11.80
67966;BMP280;54749;47.850;9.002;2022-10-16T04:39:34;96108.13;;;11.83
67966;BMP280;54749;47.850;9.002;2022-10-16T04:42:01;96111.38;;;11.85
67966;BMP280;54749;47.850;9.002;2022-10-16T04:44:29;96111.47;;;11.83
67966;BMP280;54749;47.850;9.002;2022-10-16T04:46:56;96105.59;;;11.83
67966;BMP280;54749;47.850;9.002;2022-10-16T04:49:22;96109.84;;;11.82
67966;BMP280;54749;47.850;9.002;2022-10-16T04:51:49;96105.59;;;11.83
67966;BMP280;54749;47.850;9.002;2022-10-16T04:54:16;96104.00;;;11.82
67966;BMP280;54749;47.850;9.002;2022-10-16T04:56:43;96106.66;;;11.80
67966;BMP280;54749;47.850;9.002;2022-10-16T04:59:14;96109.19;;;11.80
67966;BMP280;54749;47.850;9.002;2022-10-16T05:01:41;96106.78;;;11.79
67966;BMP280;54749;47.850;9.002;2022-10-16T05:04:08;96108.84;;;11.85
67966;BMP280;54749;47.850;9.002;2022-10-16T05:06:36;96112.63;;;11.90
67966;BMP280;54749;47.850;9.002;2022-10-16T05:09:03;96114.09;;;11.92
67966;BMP280;54749;47.850;9.002;2022-10-16T05:11:30;96114.09;;;11.92
67966;BMP280;54749;47.850;9.002;2022-10-16T05:13:56;96118.47;;;11.90
67966;BMP280;54749;47.850;9.002;2022-10-16T05:16:23;96116.06;;;11.89
67966;BMP280;54749;47.850;9.002;2022-10-16T05:18:54;96117.00;;;11.88
67966;BMP280;54749;47.850;9.002;2022-10-16T05:21:30;96117.91;;;11.87
67966;BMP280;54749;47.850;9.002;2022-10-16T05:23:56;96125.28;;;11.90
67966;BMP280;54749;47.850;9.002;2022-10-16T05:26:23;96118.34;;;11.92
67966;BMP280;54749;47.850;9.002;2022-10-16T05:28:50;96125.72;;;11.95
67966;BMP280;54749;47.850;9.002;2022-10-16T05:31:17;96120.53;;;11.96
67966;BMP280;54749;47.850;9.002;2022-10-16T05:33:44;96125.59;;;11.96
67966;BMP280;54749;47.850;9.002;2022-10-16T05:36:11;96124.69;;;11.97
67966;BMP280;54749;47.850;9.002;2022-10-16T05:38:39;96132.84;;;12.01
67966;BMP280;54749;47.850;9.002;2022-10-16T05:41:06;96137.00;;;12.02
67966;BMP280;54749;47.850;9.002;2022-10-16T05:43:33;96141.25;;;12.01
67966;BMP280;54749;47.850;9.002;2022-10-16T05:46:04;96133.41;;;12.04
67966;BMP280;54749;47.850;9.002;2022-10-16T05:48:31;96138.34;;;12.06
67966;BMP280;54749;47.850;9.002;2022-10-16T05:51:00;96132.47;;;12.05
67966;BMP280;54749;47.850;9.002;2022-10-16T05:53:29;96138.25;;;12.07
67966;BMP280;54749;47.850;9.002;2022-10-16T05:55:57;96129.16;;;12.05
67966;BMP280;54749;47.850;9.002;2022-10-16T05:58:24;96146.06;;;12.04
67966;BMP280;54749;47.850;9.002;2022-10-16T06:00:57;96136.88;;;12.03
67966;BMP280;54749;47.850;9.002;2022-10-16T06:03:24;96133.28;;;12.06
67966;BMP280;54749;47.850;9.002;2022-10-16T06:05:51;96127.97;;;12.08
67966;BMP280;54749;47.850;9.002;2022-10-16T06:08:19;96140.94;;;12.25
67966;BMP280;54749;47.850;9.002;2022-10-16T06:10:46;96142.50;;;12.37
67966;BMP280;54749;47.850;9.002;2022-10-16T06:13:13;96141.66;;;12.47
67966;BMP280;54749;47.850;9.002;2022-10-16T06:15:42;96142.34;;;12.49
67966;BMP280;54749;47.850;9.002;2022-10-16T06:18:09;96153.72;;;12.55
67966;BMP280;54749;47.850;9.002;2022-10-16T06:20:37;96151.84;;;12.67
67966;BMP280;54749;47.850;9.002;2022-10-16T06:23:04;96145.00;;;12.98
67966;BMP280;54749;47.850;9.002;2022-10-16T06:25:31;96155.22;;;13.17
67966;BMP280;54749;47.850;9.002;2022-10-16T06:27:58;96158.25;;;13.31
67966;BMP280;54749;47.850;9.002;2022-10-16T06:30:25;96164.19;;;13.41
67966;BMP280;54749;47.850;9.002;2022-10-16T06:32:51;96166.63;;;13.51
67966;BMP280;54749;47.850;9.002;2022-10-16T06:35:18;96161.84;;;13.58
67966;BMP280;54749;47.850;9.002;2022-10-16T06:37:45;96164.84;;;13.72
67966;BMP280;54749;47.850;9.002;2022-10-16T06:40:12;96169.03;;;13.82
67966;BMP280;54749;47.850;9.002;2022-10-16T06:42:41;96179.66;;;13.96
67966;BMP280;54749;47.850;9.002;2022-10-16T06:45:08;96176.34;;;14.14
67966;BMP280;54749;47.850;9.002;2022-10-16T06:47:35;96186.41;;;14.34
67966;BMP280;54749;47.850;9.002;2022-10-16T06:50:03;96189.50;;;14.56
67966;BMP280;54749;47.850;9.002;2022-10-16T06:52:30;96195.81;;;14.71
67966;BMP280;54749;47.850;9.002;2022-10-16T06:54:57;96193.28;;;14.89
67966;BMP280;54749;47.850;9.002;2022-10-16T06:57:24;96202.78;;;15.06
67966;BMP280;54749;47.850;9.002;2022-10-16T06:59:51;96201.16;;;15.23
67966;BMP280;54749;47.850;9.002;2022-10-16T07:02:20;96201.09;;;15.42
67966;BMP280;54749;47.850;9.002;2022-10-16T07:04:47;96197.84;;;15.58
67966;BMP280;54749;47.850;9.002;2022-10-16T07:07:14;96204.91;;;15.73
67966;BMP280;54749;47.850;9.002;2022-10-16T07:09:41;96217.94;;;15.61
67966;BMP280;54749;47.850;9.002;2022-10-16T07:12:08;96224.41;;;15.56
67966;BMP280;54749;47.850;9.002;2022-10-16T07:14:35;96224.09;;;15.68
67966;BMP280;54749;47.850;9.002;2022-10-16T07:17:02;96222.66;;;16.01
67966;BMP280;54749;47.850;9.002;2022-10-16T07:19:29;96218.03;;;16.40
67966;BMP280;54749;47.850;9.002;2022-10-16T07:22:00;96222.03;;;17.27
67966;BMP280;54749;47.850;9.002;2022-10-16T07:24:27;96208.13;;;19.24
67966;BMP280;54749;47.850;9.002;2022-10-16T07:26:54;96200.19;;;20.40
67966;BMP280;54749;47.850;9.002;2022-10-16T07:29:21;96203.03;;;21.76
67966;BMP280;54749;47.850;9.002;2022-10-16T07:31:49;96187.78;;;23.21
67966;BMP280;54749;47.850;9.002;2022-10-16T07:34:17;96195.84;;;24.06
67966;BMP280;54749;47.850;9.002;2022-10-16T07:36:46;96195.09;;;23.58
67966;BMP280;54749;47.850;9.002;2022-10-16T07:39:13;96213.03;;;22.84
67966;BMP280;54749;47.850;9.002;2022-10-16T07:41:41;96223.75;;;21.97
67966;BMP280;54749;47.850;9.002;2022-10-16T07:44:07;96230.91;;;21.37
67966;BMP280;54749;47.850;9.002;2022-10-16T07:46:35;96225.69;;;22.51
67966;BMP280;54749;47.850;9.002;2022-10-16T07:49:03;96227.22;;;22.60
67966;BMP280;54749;47.850;9.002;2022-10-16T07:51:29;96231.47;;;22.25
67966;BMP280;54749;47.850;9.002;2022-10-16T07:53:56;96247.13;;;21.74
67966;BMP280;54749;47.850;9.002;2022-10-16T07:56:23;96242.31;;;21.35
67966;BMP280;54749;47.850;9.002;2022-10-16T07:58:51;96236.75;;;21.02
67966;BMP280;54749;47.850;9.002;2022-10-16T08:01:18;96244.97;;;20.75
67966;BMP280;54749;47.850;9.002;2022-10-16T08:03:48;96254.06;;;20.48
67966;BMP280;54749;47.850;9.002;2022-10-16T08:06:16;96257.22;;;20.20
67966;BMP280;54749;47.850;9.002;2022-10-16T08:08:43;96255.38;;;19.83
67966;BMP280;54749;47.850;9.002;2022-10-16T08:11:10;96262.94;;;19.46
67966;BMP280;54749;47.850;9.002;2022-10-16T08:13:37;96270.63;;;19.30
67966;BMP280;54749;47.850;9.002;2022-10-16T08:16:04;96267.09;;;19.16
67966;BMP280;54749;47.850;9.002;2022-10-16T08:18:35;96282.44;;;19.08
67966;BMP280;54749;47.850;9.002;2022-10-16T08:21:03;96276.69;;;19.14
67966;BMP280;54749;47.850;9.002;2022-10-16T08:23:32;96270.78;;;19.29
67966;BMP280;54749;47.850;9.002;2022-10-16T08:26:05;96270.44;;;19.40
67966;BMP280;54749;47.850;9.002;2022-10-16T08:28:33;96264.72;;;19.53
67966;BMP280;54749;47.850;9.002;2022-10-16T08:31:12;96274.78;;;19.70
67966;BMP280;54749;47.850;9.002;2022-10-16T08:33:41;96277.03;;;19.81
67966;BMP280;54749;47.850;9.002;2022-10-16T08:36:10;96294.66;;;19.92
67966;BMP280;54749;47.850;9.002;2022-10-16T08:38:37;96290.97;;;19.94
67966;BMP280;54749;47.850;9.002;2022-10-16T08:41:17;96283.69;;;20.13
67966;BMP280;54749;47.850;9.002;2022-10-16T08:49:24;96287.91;;;22.63
67966;BMP280;54749;47.850;9.002;2022-10-16T08:51:51;96280.50;;;23.43
67966;BMP280;54749;47.850;9.002;2022-10-16T08:56:49;96273.44;;;24.85
67966;BMP280;54749;47.850;9.002;2022-10-16T08:59:16;96281.75;;;25.26
67966;BMP280;54749;47.850;9.002;2022-10-16T09:01:46;96273.22;;;24.80
67966;BMP280;54749;47.850;9.002;2022-10-16T09:07:10;96283.66;;;23.59
67966;BMP280;54749;47.850;9.002;2022-10-16T09:12:36;96295.84;;;22.96
67966;BMP280;54749;47.850;9.002;2022-10-16T09:15:28;96297.06;;;23.14
67966;BMP280;54749;47.850;9.002;2022-10-16T09:18:06;96291.50;;;23.31
67966;BMP280;54749;47.850;9.002;2022-10-16T09:23:14;96305.31;;;24.05
67966;BMP280;54749;47.850;9.002;2022-10-16T09:25:48;96296.94;;;25.73
67966;BMP280;54749;47.850;9.002;2022-10-16T09:28:18;96285.38;;;28.51
67966;BMP280;54749;47.850;9.002;2022-10-16T09:30:46;96272.09;;;31.26
67966;BMP280;54749;47.850;9.002;2022-10-16T09:33:17;96262.13;;;33.62
67966;BMP280;54749;47.850;9.002;2022-10-16T09:35:47;96267.75;;;34.32
67966;BMP280;54749;47.850;9.002;2022-10-16T09:38:41;96271.50;;;34.10
67966;BMP280;54749;47.850;9.002;2022-10-16T09:41:20;96260.47;;;35.38
67966;BMP280;54749;47.850;9.002;2022-10-16T09:46:36;96246.69;;;37.26
67966;BMP280;54749;47.850;9.002;2022-10-16T09:49:18;96247.75;;;37.25
67966;BMP280;54749;47.850;9.002;2022-10-16T09:51:45;96248.72;;;36.67
67966;BMP280;54749;47.850;9.002;2022-10-16T09:54:16;96249.00;;;37.42
67966;BMP280;54749;47.850;9.002;2022-10-16T09:56:44;96228.59;;;39.06
67966;BMP280;54749;47.850;9.002;2022-10-16T09:59:20;96240.88;;;38.41
67966;BMP280;54749;47.850;9.002;2022-10-16T10:01:50;96245.97;;;37.11
67966;BMP280;54749;47.850;9.002;2022-10-16T10:04:18;96247.16;;;35.69
67966;BMP280;54749;47.850;9.002;2022-10-16T10:06:48;96268.25;;;33.72
67966;BMP280;54749;47.850;9.002;2022-10-16T10:09:31;96278.06;;;32.56
67966;BMP280;54749;47.850;9.002;2022-10-16T10:12:00;96295.22;;;31.45
67966;BMP280;54749;47.850;9.002;2022-10-16T10:14:36;96288.88;;;30.91
67966;BMP280;54749;47.850;9.002;2022-10-16T10:17:16;96300.03;;;30.42
67966;BMP280;54749;47.850;9.002;2022-10-16T10:19:58;96293.34;;;29.84
67966;BMP280;54749;47.850;9.002;2022-10-16T10:22:29;96296.53;;;29.11
67966;BMP280;54749;47.850;9.002;2022-10-16T10:36:02;96292.78;;;27.83
67966;BMP280;54749;47.850;9.002;2022-10-16T10:44:16;96284.88;;;27.35
67966;BMP280;54749;47.850;9.002;2022-10-16T10:46:55;96285.09;;;27.70
67966;BMP280;54749;47.850;9.002;2022-10-16T10:54:50;96273.25;;;28.63
67966;BMP280;54749;47.850;9.002;2022-10-16T10:57:27;96281.66;;;28.65
67966;BMP280;54749;47.850;9.002;2022-10-16T11:00:03;96275.81;;;28.28
67966;BMP280;54749;47.850;9.002;2022-10-16T11:02:38;96268.97;;;28.51
67966;BMP280;54749;47.850;9.002;2022-10-16T11:07:55;96270.34;;;29.06
67966;BMP280;54749;47.850;9.002;2022-10-16T11:10:28;96259.44;;;29.44
67966;BMP280;54749;47.850;9.002;2022-10-16T11:13:05;96260.13;;;29.39
67966;BMP280;54749;47.850;9.002;2022-10-16T11:15:39;96259.94;;;29.06
67966;BMP280;54749;47.850;9.002;2022-10-16T11:18:13;96253.59;;;29.02
67966;BMP280;54749;47.850;9.002;2022-10-16T11:21:08;96269.19;;;28.67
67966;BMP280;54749;47.850;9.002;2022-10-16T11:23:44;96258.91;;;28.37
67966;BMP280;54749;47.850;9.002;2022-10-16T11:26:28;96252.09;;;27.71
67966;BMP280;54749;47.850;9.002;2022-10-16T11:28:56;96259.34;;;27.62
67966;BMP280;54749;47.850;9.002;2022-10-16T11:34:47;96251.34;;;27.64
67966;BMP280;54749;47.850;9.002;2022-10-16T11:37:19;96240.75;;;27.65
67966;BMP280;54749;47.850;9.002;2022-10-16T11:39:48;96238.16;;;27.35
67966;BMP280;54749;47.850;9.002;2022-10-16T11:42:41;96236.69;;;27.09
67966;BMP280;54749;47.850;9.002;2022-10-16T11:45:36;96242.50;;;27.05
67966;BMP280;54749;47.850;9.002;2022-10-16T11:48:41;96240.41;;;27.19
67966;BMP280;54749;47.850;9.002;2022-10-16T11:56:45;96230.63;;;27.21
67966;BMP280;54749;47.850;9.002;2022-10-16T11:59:25;96223.47;;;27.47
67966;BMP280;54749;47.850;9.002;2022-10-16T12:02:16;96233.44;;;27.20
67966;BMP280;54749;47.850;9.002;2022-10-16T12:04:51;96233.41;;;26.83
67966;BMP280;54749;47.850;9.002;2022-10-16T12:07:24;96226.25;;;26.79
67966;BMP280;54749;47.850;9.002;2022-10-16T12:09:53;96228.00;;;26.85
67966;BMP280;54749;47.850;9.002;2022-10-16T12:12:26;96227.88;;;26.67
67966;BMP280;54749;47.850;9.002;2022-10-16T12:15:22;96218.34;;;26.61
67966;BMP280;54749;47.850;9.002;2022-10-16T12:18:21;96215.19;;;26.53
67966;BMP280;54749;47.850;9.002;2022-10-16T12:20:58;96217.22;;;26.26
67966;BMP280;54749;47.850;9.002;2022-10-16T12:23:32;96217.06;;;26.08
67966;BMP280;54749;47.850;9.002;2022-10-16T12:26:00;96226.44;;;25.71
67966;BMP280;54749;47.850;9.002;2022-10-16T12:28:30;96216.25;;;25.38
67966;BMP280;54749;47.850;9.002;2022-10-16T12:31:01;96216.88;;;25.40
67966;BMP280;54749;47.850;9.002;2022-10-16T12:33:31;96215.56;;;25.11
67966;BMP280;54749;47.850;9.002;2022-10-16T12:36:41;96210.78;;;25.08
67966;BMP280;54749;47.850;9.002;2022-10-16T12:39:24;96212.63;;;25.14
67966;BMP280;54749;47.850;9.002;2022-10-16T12:42:06;96214.06;;;25.35
67966;BMP280;54749;47.850;9.002;2022-10-16T12:44:44;96214.84;;;25.42
67966;BMP280;54749;47.850;9.002;2022-10-16T12:50:24;96209.28;;;25.26
67966;BMP280;54749;47.850;9.002;2022-10-16T12:52:51;96209.78;;;24.96
67966;BMP280;54749;47.850;9.002;2022-10-16T12:55:20;96210.16;;;24.87
67966;BMP280;54749;47.850;9.002;2022-10-16T13:00:57;96201.97;;;24.77
67966;BMP280;54749;47.850;9.002;2022-10-16T13:09:55;96214.84;;;24.59
67966;BMP280;54749;47.850;9.002;2022-10-16T13:12:55;96206.22;;;24.52
67966;BMP280;54749;47.850;9.002;2022-10-16T13:18:33;96216.38;;;24.20
67966;BMP280;54749;47.850;9.002;2022-10-16T13:26:31;96213.75;;;24.47
67966;BMP280;54749;47.850;9.002;2022-10-16T13:29:01;96225.69;;;24.48
67966;BMP280;54749;47.850;9.002;2022-10-16T13:31:30;96213.31;;;24.37
67966;BMP280;54749;47.850;9.002;2022-10-16T13:33:58;96216.19;;;24.22
67966;BMP280;54749;47.850;9.002;2022-10-16T13:36:29;96219.53;;;24.16
67966;BMP280;54749;47.850;9.002;2022-10-16T13:39:12;96216.75;;;24.11
67966;BMP280;54749;47.850;9.002;2022-10-16T13:41:40;96223.06;;;24.02
67966;BMP280;54749;47.850;9.002;2022-10-16T13:44:14;96221.59;;;23.93
67966;BMP280;54749;47.850;9.002;2022-10-16T13:46:42;96219.06;;;24.00
67966;BMP280;54749;47.850;9.002;2022-10-16T13:49:17;96215.50;;;24.01
67966;BMP280;54749;47.850;9.002;2022-10-16T13:51:55;96209.94;;;24.04
67966;BMP280;54749;47.850;9.002;2022-10-16T13:54:23;96219.84;;;24.00
67966;BMP280;54749;47.850;9.002;2022-10-16T13:56:51;96221.59;;;23.93
67966;BMP280;54749;47.850;9.002;2022-10-16T13:59:36;96220.84;;;23.99
67966;BMP280;54749;47.850;9.002;2022-10-16T14:02:33;96214.09;;;23.98
67966;BMP280;54749;47.850;9.002;2022-10-16T14:05:02;96219.03;;;23.93
67966;BMP280;54749;47.850;9.002;2022-10-16T14:07:32;96210.66;;;23.91
67966;BMP280;54749;47.850;9.002;2022-10-16T14:10:22;96210.03;;;23.89
67966;BMP280;54749;47.850;9.002;2022-10-16T14:12:57;96210.59;;;23.85
67966;BMP280;54749;47.850;9.002;2022-10-16T14:15:25;96216.13;;;23.82
67966;BMP280;54749;47.850;9.002;2022-10-16T14:17:52;96206.13;;;23.73
67966;BMP280;54749;47.850;9.002;2022-10-16T14:20:24;96214.41;;;23.62
67966;BMP280;54749;47.850;9.002;2022-10-16T14:23:04;96196.69;;;23.59
67966;BMP280;54749;47.850;9.002;2022-10-16T14:25:43;96192.88;;;23.55
67966;BMP280;54749;47.850;9.002;2022-10-16T14:30:53;96202.75;;;23.46
67966;BMP280;54749;47.850;9.002;2022-10-16T14:38:50;96203.75;;;23.24
67966;BMP280;54749;47.850;9.002;2022-10-16T14:41:21;96204.03;;;23.15
67966;BMP280;54749;47.850;9.002;2022-10-16T14:43:53;96202.81;;;23.11
67966;BMP280;54749;47.850;9.002;2022-10-16T14:46:27;96208.50;;;23.07
67966;BMP280;54749;47.850;9.002;2022-10-16T14:49:00;96206.66;;;23.01
67966;BMP280;54749;47.850;9.002;2022-10-16T14:51:28;96209.78;;;22.97
67966;BMP280;54749;47.850;9.002;2022-10-16T14:53:56;96214.50;;;22.93
67966;BMP280;54749;47.850;9.002;2022-10-16T14:56:30;96217.56;;;22.82
67966;BMP280;54749;47.850;9.002;2022-10-16T14:58:59;96216.88;;;22.74
67966;BMP280;54749;47.850;9.002;2022-10-16T15:01:27;96219.41;;;22.68
67966;BMP280;54749;47.850;9.002;2022-10-16T15:03:54;96217.69;;;22.61
67966;BMP280;54749;47.850;9.002;2022-10-16T15:06:21;96214.25;;;22.54
67966;BMP280;54749;47.850;9.002;2022-10-16T15:08:48;96215.75;;;22.48
67966;BMP280;54749;47.850;9.002;2022-10-16T15:11:18;96214.69;;;22.43
67966;BMP280;54749;47.850;9.002;2022-10-16T15:13:45;96220.72;;;22.36
67966;BMP280;54749;47.850;9.002;2022-10-16T15:16:14;96224.00;;;22.30
67966;BMP280;54749;47.850;9.002;2022-10-16T15:18:43;96225.72;;;22.23
67966;BMP280;54749;47.850;9.002;2022-10-16T15:21:30;96232.75;;;22.15
67966;BMP280;54749;47.850;9.002;2022-10-16T15:23:59;96237.19;;;22.07
67966;BMP280;54749;47.850;9.002;2022-10-16T15:26:27;96231.50;;;21.97
67966;BMP280;54749;47.850;9.002;2022-10-16T15:28:55;96238.84;;;21.86
67966;BMP280;54749;47.850;9.002;2022-10-16T15:31:22;96236.50;;;21.76
67966;BMP280;54749;47.850;9.002;2022-10-16T15:33:54;96246.41;;;21.65
67966;BMP280;54749;47.850;9.002;2022-10-16T15:36:29;96248.97;;;21.51
67966;BMP280;54749;47.850;9.002;2022-10-16T15:38:56;96242.97;;;21.37
67966;BMP280;54749;47.850;9.002;2022-10-16T15:41:23;96244.50;;;21.23
67966;BMP280;54749;47.850;9.002;2022-10-16T15:43:50;96242.06;;;21.08
67966;BMP280;54749;47.850;9.002;2022-10-16T15:46:19;96240.34;;;20.93
67966;BMP280;54749;47.850;9.002;2022-10-16T15:48:48;96252.31;;;20.78
67966;BMP280;54749;47.850;9.002;2022-10-16T15:51:16;96255.94;;;20.62
67966;BMP280;54749;47.850;9.002;2022-10-16T15:53:43;96260.19;;;20.47
67966;BMP280;54749;47.850;9.002;2022-10-16T15:56:13;96256.03;;;20.31
67966;BMP280;54749;47.850;9.002;2022-10-16T15:58:42;96254.19;;;20.17
67966;BMP280;54749;47.850;9.002;2022-10-16T16:01:09;96254.69;;;20.05
67966;BMP280;54749;47.850;9.002;2022-10-16T16:03:38;96258.09;;;19.90
67966;BMP280;54749;47.850;9.002;2022-10-16T16:06:08;96265.50;;;19.77